NCAR-RAP Real-Time Weather Data

Output produced by METARs form (10 April 2020  07:20 UTC)
found at http://weather.rap.ucar.edu/surface/
 
KPIT 100717Z 29014G22KT 7SM -SN FEW022 BKN030 OVC065 00/M02 A2963 RMK AO2 SNB0657 P0000 T00001017